Terminal Aerodrome Forecast
Issued by NWS

Home | Current Version | Previous Version | Text Only | Print | Product List | Glossary On
Versions: 1 2 3 4 5 6 7 8 9 10 11 12 13 14 15 16 17 18 19
000
FTUS45 KMSO 271721
TAFSMN
TAF
KSMN 271721Z 2718/2818 00000KT 1/2SM FZFG OVC002
     FM272000 VRB03KT 1SM BR BKN002 BKN200
     FM280000 VRB03KT 1/2SM FZFG BKN002 BKN200
     FM280200 00000KT 1/2SM FZFG VCSH BKN002 BKN080 OVC100
     FM280600 VRB03KT 2SM -FZRAPL BR BKN010 BKN030
     FM281200 VRB03KT 2SM BR BKN010 BKN030
      AMD LTD TO CLD VIS AND WIND=

USA.gov is the U.S. government's official web portal to all federal, state and local government web resources and services.